Íslenskir flugvellir

Veldu flugvelli í þeirri röð sem þeir eiga að birtast og styddu á hnappinn

Uppfært síðast 27.02.2020 - kl. 21:16

SIGMET síðustu 6 klst.

BIRD SIGMET A04 VALID 272000/272300 BIRK- BIRD REYKJAVIK CTA SEV TURB FCST WI N6430 W01600 - N6300 W01600 - N6330 W02300 - N6430 W02130 - N6430 W01600 SFC/FL100 STNR INTSF
BIRD SIGMET A03 VALID 271700/272000 BIRK- BIRD REYKJAVIK CTA SEV TURB FCST WI N6330 W02310 - N6420 W02150 - N6430 W01700 - N6320 W01600 - N6230 W02010 - N6330 W02310 SFC/FL100 STNR NC

Egilsstaðir

METAR síðustu 3 klst

TímiSkeyti
2020-02-27 21.00METAR BIEG 272100Z 08003KT 9999 VCSH FEW033 SCT039 M04/M09 Q1002
2020-02-27 20.00METAR BIEG 272000Z 29004KT 9999 VCSH FEW017 SCT027 BKN200 M05/M09 Q1002
2020-02-27 19.00METAR BIEG 271900Z 36004KT 9999 VCSH SCT028 BKN200 M07/M11 Q1002

TAF

TAFBIEG2020-02-27 19.30Z27212102014KT 9999 -SHSN SCT025 BKN045 TXM01/2818Z TNM09/2803Z TEMPO 2806/2815 11020G32KT 4000 DRSN BKN014 OVC025 BECMG 2815/2818 02028G40KT 0800 SN BLSN VV002

Allur vindur er réttvísandi bæði í Metar og frá sjálfvirkum veðurstöðvum




Aðrir tengdir vefir



Þetta vefsvæði byggir á Eplica